KBOS

General Edward Lawrence Logan International Airport

Boston, Massachusetts, USA
METAR KBOS 191654Z 07017KT 10SM SCT025 BKN250 22/16 A3004 RMK AO2 SLP171 T02220161 $
Observed Flight Rules
Aug-19 @ 16:54 UTC (19 minutes ago) Visual Flight Rules
Wind Visibility Clouds
70° at 17 knots 10 miles
  • Scattered at 2,500' AGL
  • Broken at 25,000' AGL
Temperatures Readings
Current 22°C / 72°F
Dewpoint 16°C / 61°F
Humidity 69%
Altimeter 30.04" Hg
Pressure 1017.1 hPa
Elevation 6
METAR KBOS 191654Z 07017KT 10SM SCT025 BKN250 22/16 A3004 RMK AO2 SLP171 T02220161 $
Observed Flight Rules
Aug-19 @ 16:54 UTC
(19 minutes ago)
VFR
Wind Visibility
70° at 17 knots 10 miles
Clouds
  • Scattered at 2,500' AGL
  • Broken at 25,000' AGL
Temperature Dewpoint
22°C / 72°F 16°C / 61°F
Humidity Altimeter Pressure
69% 30.04" Hg 1017.1 hPa